createdAt,value
2017-02-06T05:31:34.468Z,1.29
2017-02-06T05:32:15.012Z,1.34
2017-02-06T05:32:55.533Z,1.27
2017-02-06T05:33:36.003Z,1.26
2017-02-06T05:34:16.516Z,1.26
2017-02-06T05:34:57.032Z,1.26
2017-02-06T05:35:37.555Z,1.3
2017-02-06T05:36:18.059Z,1.3
2017-02-06T05:36:58.552Z,1.32
2017-02-06T05:37:39.060Z,1.29
2017-02-06T05:38:19.589Z,1.26
2017-02-06T05:39:00.101Z,1.18
2017-02-06T05:39:40.629Z,1.18
2017-02-06T05:40:21.116Z,1.23
2017-02-06T05:41:01.646Z,1.24
2017-02-06T05:41:42.200Z,1.22
2017-02-06T05:42:22.705Z,1.32
2017-02-06T05:43:03.217Z,1.2
2017-02-06T05:43:43.723Z,1.22
2017-02-06T05:44:24.242Z,1.3
2017-02-06T05:45:04.740Z,1.16
2017-02-06T05:45:45.251Z,1.2
2017-02-06T05:46:25.789Z,1.3
2017-02-06T05:47:06.299Z,1.22
2017-02-06T05:47:46.822Z,1.16
2017-02-06T05:48:27.333Z,1.18
2017-02-06T05:49:07.822Z,1.3
2017-02-06T05:49:48.333Z,1.29
2017-02-06T05:50:28.861Z,1.22
2017-02-06T05:51:09.370Z,1.22
2017-02-06T05:51:49.888Z,1.15
2017-02-06T05:52:30.415Z,1.12
2017-02-06T05:53:10.933Z,1.18
2017-02-06T05:53:51.463Z,1.3
2017-02-06T05:54:31.976Z,1.2
2017-02-06T05:55:12.490Z,1.24
2017-02-06T05:55:52.996Z,1.23
2017-02-06T05:56:33.515Z,1.24
2017-02-06T05:57:14.027Z,1.22
2017-02-06T05:57:54.551Z,1.23
2017-02-06T05:58:35.090Z,1.23
2017-02-06T05:59:15.583Z,1.2
2017-02-06T05:59:56.107Z,1.2
2017-02-06T06:00:36.640Z,1.3
2017-02-06T06:01:17.196Z,1.16
2017-02-06T06:01:57.707Z,1.32
2017-02-06T06:02:38.229Z,1.22
2017-02-06T06:03:18.848Z,1.26
2017-02-06T06:03:59.382Z,1.18
2017-02-06T06:04:39.920Z,1.23
2017-02-06T06:05:20.461Z,1.26
2017-02-06T06:06:00.979Z,1.18
2017-02-06T06:06:41.479Z,1.18
2017-02-06T06:07:21.948Z,1.18
2017-02-06T06:08:02.459Z,1.24
2017-02-06T06:08:42.970Z,1.2
2017-02-06T06:09:23.488Z,1.15
2017-02-06T06:10:03.995Z,1.18
2017-02-06T06:10:44.506Z,1.18
2017-02-06T06:11:25.021Z,1.15
2017-02-06T06:12:05.536Z,1.08
2017-02-06T06:12:46.064Z,1.14
2017-02-06T06:13:26.588Z,1.2
2017-02-06T06:14:07.091Z,1.2
2017-02-06T06:14:47.618Z,1.16
2017-02-06T06:15:28.112Z,1.12
2017-02-06T06:16:08.626Z,1.2
2017-02-06T06:16:49.140Z,1.12
2017-02-06T06:17:29.656Z,1.15
2017-02-06T06:18:10.172Z,1.2
2017-02-06T06:18:50.671Z,1.12
2017-02-06T06:19:31.187Z,1.2
2017-02-06T06:20:11.714Z,1.14
2017-02-06T06:20:52.279Z,1.14
2017-02-06T06:21:32.780Z,1.06
2017-02-06T06:22:13.298Z,1.15
2017-02-06T06:22:53.784Z,1.14
2017-02-06T06:23:34.297Z,1.11
2017-02-06T06:24:14.804Z,1.11
2017-02-06T06:24:55.331Z,1.14
2017-02-06T06:25:35.842Z,1.04
2017-02-06T06:26:16.360Z,1.04
2017-02-06T06:26:56.867Z,1
2017-02-06T06:27:37.371Z,1.15
2017-02-06T06:28:17.882Z,1.12
2017-02-06T06:28:58.400Z,0.97
2017-02-06T06:29:38.898Z,1.06
2017-02-06T06:30:19.406Z,1.05
2017-02-06T06:30:59.918Z,1.08
2017-02-06T06:31:40.414Z,1.02
2017-02-06T06:32:20.929Z,1.04
2017-02-06T06:33:01.445Z,0.98
2017-02-06T06:33:41.951Z,0.96
2017-02-06T06:34:22.477Z,0.93
2017-02-06T06:35:02.993Z,0.97
2017-02-06T06:35:43.494Z,0.91
2017-02-06T06:36:24.018Z,0.93
2017-02-06T06:37:04.530Z,0.94
2017-02-06T06:37:45.065Z,0.88
2017-02-06T06:38:25.592Z,0.9
2017-02-06T06:39:06.081Z,0.93
2017-02-06T06:39:46.588Z,0.87
2017-02-06T06:40:27.094Z,0.88
2017-02-06T06:41:07.595Z,0.9
2017-02-06T06:41:48.097Z,0.93
2017-02-06T06:42:28.606Z,0.9
2017-02-06T06:43:09.133Z,0.94
2017-02-06T06:43:49.637Z,0.86
2017-02-06T06:44:30.147Z,0.87
2017-02-06T06:45:10.650Z,0.87
2017-02-06T06:45:51.165Z,0.93
2017-02-06T06:46:31.660Z,0.96
2017-02-06T06:47:12.182Z,0.94
2017-02-06T06:47:52.678Z,0.97
2017-02-06T06:48:33.192Z,0.97
2017-02-06T06:49:13.702Z,0.93
2017-02-06T06:49:54.237Z,0.91
2017-02-06T06:50:34.745Z,0.9
2017-02-06T06:51:15.247Z,0.9
2017-02-06T06:51:55.749Z,0.9
2017-02-06T06:52:36.254Z,0.8
2017-02-06T06:53:16.745Z,0.86
2017-02-06T06:53:57.241Z,0.78
2017-02-06T06:54:37.737Z,0.84
2017-02-06T06:55:18.252Z,0.86
2017-02-06T06:55:58.753Z,0.83
2017-02-06T06:56:39.273Z,0.87
2017-02-06T06:57:19.784Z,0.88
2017-02-06T06:58:00.291Z,0.86
2017-02-06T06:58:40.798Z,0.87
2017-02-06T06:59:21.302Z,0.84
2017-02-06T07:00:01.803Z,0.93
2017-02-06T07:00:42.291Z,0.93
2017-02-06T07:01:22.775Z,0.87
2017-02-06T07:02:03.285Z,0.79
2017-02-06T07:02:43.800Z,0.84
2017-02-06T07:03:24.324Z,0.87
2017-02-06T07:04:04.827Z,0.78
2017-02-06T07:04:45.351Z,0.86
2017-02-06T07:05:25.870Z,0.79
2017-02-06T07:06:06.399Z,0.84
2017-02-06T07:06:46.906Z,0.78
2017-02-06T07:07:27.421Z,0.84
2017-02-06T07:08:07.933Z,0.86
2017-02-06T07:08:48.447Z,0.86
2017-02-06T07:09:28.953Z,0.88
2017-02-06T07:10:09.455Z,0.88
2017-02-06T07:10:49.962Z,0.87
2017-02-06T07:11:30.473Z,0.91
2017-02-06T07:12:10.982Z,0.9
2017-02-06T07:12:51.480Z,0.86
2017-02-06T07:13:32.001Z,0.88
2017-02-06T07:14:12.526Z,0.87
2017-02-06T07:14:53.023Z,0.76
2017-02-06T07:15:33.583Z,0.87
2017-02-06T07:16:14.087Z,0.87
2017-02-06T07:16:54.598Z,0.87
2017-02-06T07:17:35.177Z,0.88
2017-02-06T07:18:15.681Z,0.87
2017-02-06T07:18:56.182Z,0.87
2017-02-06T07:19:36.688Z,0.87
2017-02-06T07:20:17.199Z,0.87
2017-02-06T07:20:57.693Z,0.9
2017-02-06T07:21:38.226Z,0.91
2017-02-06T07:22:18.726Z,0.93
2017-02-06T07:22:59.258Z,0.93
2017-02-06T07:23:39.749Z,0.9
2017-02-06T07:24:20.277Z,1
2017-02-06T07:25:00.770Z,1
2017-02-06T07:25:41.273Z,0.96
2017-02-06T07:26:21.756Z,0.93
2017-02-06T07:27:02.285Z,0.96
2017-02-06T07:27:42.776Z,0.96
2017-02-06T07:28:23.265Z,0.96
2017-02-06T07:29:03.775Z,0.97
2017-02-06T07:29:44.290Z,1
2017-02-06T07:30:24.793Z,0.93
2017-02-06T07:31:05.297Z,0.96
2017-02-06T07:31:45.821Z,0.94
2017-02-06T07:32:26.334Z,0.98
2017-02-06T07:33:06.840Z,0.93
2017-02-06T07:33:47.359Z,0.91
2017-02-06T07:34:27.861Z,0.91
2017-02-06T07:35:08.368Z,0.94
2017-02-06T07:35:48.879Z,0.97
2017-02-06T07:36:29.380Z,0.91
2017-02-06T07:37:09.917Z,0.97
2017-02-06T07:37:50.432Z,0.98
2017-02-06T07:38:30.977Z,0.98
2017-02-06T07:39:11.473Z,0.96
2017-02-06T07:39:51.991Z,0.98
2017-02-06T07:40:32.564Z,1.15
2017-02-06T07:41:13.127Z,1.11
2017-02-06T07:41:53.594Z,1.09
2017-02-06T07:42:34.120Z,1.08
2017-02-06T07:43:14.642Z,1.12
2017-02-06T07:43:55.217Z,1.09
2017-02-06T07:44:35.724Z,1.18
2017-02-06T07:45:16.233Z,1.15
2017-02-06T07:45:56.742Z,1.24
2017-02-06T07:46:37.259Z,1.14
2017-02-06T07:47:17.755Z,1.12
2017-02-06T07:47:58.279Z,1.29
2017-02-06T07:48:38.780Z,1.22
2017-02-06T07:49:19.281Z,1.22
2017-02-06T07:49:59.755Z,1.22
2017-02-06T07:50:40.249Z,1.23
2017-02-06T07:51:20.761Z,1.3
2017-02-06T07:52:01.309Z,1.24
2017-02-06T07:52:41.826Z,1.27
2017-02-06T07:53:22.370Z,1.3
2017-02-06T07:54:02.857Z,1.44
2017-02-06T07:54:43.368Z,1.42
2017-02-06T07:55:23.896Z,1.36
2017-02-06T07:56:04.385Z,1.41
2017-02-06T07:56:44.897Z,1.33
2017-02-06T07:57:25.412Z,1.42
2017-02-06T07:58:05.926Z,1.45
2017-02-06T07:58:46.427Z,1.51
2017-02-06T07:59:26.922Z,1.55
2017-02-06T08:00:07.442Z,1.55
2017-02-06T08:00:47.951Z,1.55
2017-02-06T08:01:28.468Z,1.63
2017-02-06T08:02:08.949Z,1.59
2017-02-06T08:02:49.488Z,1.6
2017-02-06T08:03:30.039Z,1.65
2017-02-06T08:04:10.548Z,1.62
2017-02-06T08:04:51.083Z,1.7
2017-02-06T08:05:31.591Z,1.66
2017-02-06T08:06:12.116Z,1.73
2017-02-06T08:06:52.630Z,1.83
2017-02-06T08:07:33.104Z,1.84
2017-02-06T08:08:13.622Z,1.88
2017-02-06T08:08:54.128Z,1.83
2017-02-06T08:09:34.625Z,1.81
2017-02-06T08:10:15.149Z,1.81
2017-02-06T08:10:55.645Z,1.86
2017-02-06T08:11:36.156Z,1.84
2017-02-06T08:12:16.633Z,1.87
2017-02-06T08:12:57.161Z,1.95
2017-02-06T08:13:37.689Z,1.98
2017-02-06T08:14:18.214Z,1.95
2017-02-06T08:14:58.722Z,1.98
2017-02-06T08:15:39.196Z,2.05
2017-02-06T08:16:19.695Z,1.95
2017-02-06T08:17:00.178Z,2.09
2017-02-06T08:17:40.697Z,2.09
2017-02-06T08:18:21.207Z,2
2017-02-06T08:19:02.214Z,2.07
2017-02-06T08:19:42.466Z,2.1
2017-02-06T08:20:22.950Z,2.17
2017-02-06T08:21:08.810Z,2.14
2017-02-06T08:21:49.321Z,2.12
2017-02-06T08:22:29.844Z,2.21
2017-02-06T08:23:10.373Z,2.21
2017-02-06T08:23:50.885Z,2.1
2017-02-06T08:24:31.387Z,2.21
2017-02-06T08:25:11.919Z,2.23
2017-02-06T08:25:52.436Z,2.28
2017-02-06T08:26:32.929Z,2.18
2017-02-06T08:27:13.431Z,2.18
2017-02-06T08:27:53.928Z,2.25
2017-02-06T08:28:34.432Z,2.31
2017-02-06T08:29:14.937Z,2.31
2017-02-06T08:29:55.452Z,2.35
2017-02-06T08:30:35.950Z,2.28
2017-02-06T08:31:16.467Z,2.3
2017-02-06T08:31:56.958Z,2.41
2017-02-06T08:32:37.474Z,2.36
2017-02-06T08:33:17.962Z,2.31
2017-02-06T08:33:58.482Z,2.31
2017-02-06T08:34:38.984Z,2.39
2017-02-06T08:35:19.496Z,2.34
2017-02-06T08:35:59.998Z,2.41
2017-02-06T08:36:40.522Z,2.45
2017-02-06T08:37:21.038Z,2.45
2017-02-06T08:38:01.552Z,2.45
2017-02-06T08:38:42.064Z,2.38
2017-02-06T08:39:22.583Z,2.42
2017-02-06T08:40:03.094Z,2.45
2017-02-06T08:40:43.619Z,2.48
2017-02-06T08:41:24.104Z,2.46
2017-02-06T08:42:04.607Z,2.49
2017-02-06T08:42:45.146Z,2.54
2017-02-06T08:43:25.663Z,2.57
2017-02-06T08:44:06.167Z,2.53
2017-02-06T08:44:46.687Z,2.61
2017-02-06T08:45:27.196Z,2.53
2017-02-06T08:46:07.712Z,2.64
2017-02-06T08:46:48.222Z,2.67
2017-02-06T08:47:28.766Z,2.61
2017-02-06T08:48:09.228Z,2.64
2017-02-06T08:48:49.725Z,2.6
2017-02-06T08:49:30.224Z,2.67
2017-02-06T08:50:10.756Z,2.74
2017-02-06T08:50:51.255Z,2.69
2017-02-06T08:51:31.747Z,2.79
2017-02-06T08:52:12.242Z,2.75
2017-02-06T08:52:52.750Z,2.82
2017-02-06T08:53:33.263Z,2.77
2017-02-06T08:54:13.807Z,2.75
2017-02-06T08:54:54.301Z,2.79
2017-02-06T08:55:34.827Z,2.75
2017-02-06T08:56:15.365Z,2.81
2017-02-06T08:56:55.882Z,2.81
2017-02-06T08:57:36.377Z,2.85
2017-02-06T08:58:16.889Z,2.87
2017-02-06T08:58:57.400Z,2.9
2017-02-06T08:59:37.921Z,2.78
2017-02-06T09:00:18.446Z,2.78
2017-02-06T09:00:58.978Z,2.85
2017-02-06T09:01:39.538Z,2.74
2017-02-06T09:02:20.092Z,2.75
2017-02-06T09:03:00.610Z,2.77
2017-02-06T09:03:41.087Z,2.69
2017-02-06T09:04:21.599Z,2.71
2017-02-06T09:05:02.111Z,2.67
2017-02-06T09:05:42.621Z,2.75
2017-02-06T09:06:23.152Z,2.72
2017-02-06T09:07:03.652Z,2.79
2017-02-06T09:07:44.151Z,2.74
2017-02-06T09:08:24.652Z,2.75
2017-02-06T09:09:05.167Z,2.82
2017-02-06T09:09:45.717Z,2.78
2017-02-06T09:10:26.199Z,2.85
2017-02-06T09:11:06.710Z,2.84
2017-02-06T09:11:47.254Z,2.87
2017-02-06T09:12:27.768Z,2.92
2017-02-06T09:13:08.282Z,2.89
2017-02-06T09:13:48.772Z,2.95
2017-02-06T09:14:29.290Z,2.96
2017-02-06T09:15:09.803Z,2.92
2017-02-06T09:15:50.308Z,2.99
2017-02-06T09:16:30.816Z,2.96
2017-02-06T09:17:11.308Z,2.93
2017-02-06T09:17:51.821Z,2.95
2017-02-06T09:18:32.313Z,3.02
2017-02-06T09:19:12.827Z,3.08
2017-02-06T09:19:53.344Z,3.17
2017-02-06T09:20:33.845Z,3.11
2017-02-06T09:21:14.379Z,3.17
2017-02-06T09:21:54.909Z,3.24
2017-02-06T09:22:35.415Z,3.26
2017-02-06T09:23:15.959Z,3.23
2017-02-06T09:23:56.469Z,3.24
2017-02-06T09:24:36.986Z,3.2
2017-02-06T09:25:17.495Z,3.15
2017-02-06T09:25:58.006Z,3.2
2017-02-06T09:26:38.495Z,3.21
2017-02-06T09:27:19.003Z,3.14
2017-02-06T09:27:59.532Z,3.1
2017-02-06T09:28:40.043Z,3.13
2017-02-06T09:29:20.560Z,3.11
2017-02-06T09:30:01.067Z,3.17
2017-02-06T09:30:41.576Z,3.17
2017-02-06T09:31:22.092Z,3.23
2017-02-06T09:32:02.613Z,3.24
2017-02-06T09:32:43.118Z,3.2
2017-02-06T09:33:23.623Z,3.26
2017-02-06T09:34:04.134Z,3.17
2017-02-06T09:34:44.670Z,3.18
2017-02-06T09:35:25.197Z,3.23
2017-02-06T09:36:05.699Z,3.24
2017-02-06T09:36:46.229Z,3.2
2017-02-06T09:37:26.703Z,3.2
2017-02-06T09:38:07.218Z,3.14
2017-02-06T09:38:47.712Z,3.17
2017-02-06T09:39:28.216Z,3.13
2017-02-06T09:40:08.731Z,3.06
2017-02-06T09:40:49.248Z,3.08
2017-02-06T09:41:29.763Z,3.15
2017-02-06T09:42:10.253Z,3.03
2017-02-06T09:42:50.746Z,3.03
2017-02-06T09:43:31.243Z,3.1
2017-02-06T09:44:11.747Z,3.05
2017-02-06T09:44:52.273Z,3.14
2017-02-06T09:45:32.785Z,3.08
2017-02-06T09:46:13.275Z,3.15
2017-02-06T09:46:53.783Z,3.15
2017-02-06T09:47:34.293Z,3.15
2017-02-06T09:48:14.786Z,3.15
2017-02-06T09:48:55.300Z,3.23
2017-02-06T09:49:35.818Z,3.21
2017-02-06T09:50:16.330Z,3.23
2017-02-06T09:50:56.840Z,3.33
2017-02-06T09:51:37.360Z,3.4
2017-02-06T09:52:17.889Z,3.42
2017-02-06T09:52:58.395Z,3.35
2017-02-06T09:53:38.908Z,3.45
2017-02-06T09:54:19.422Z,3.55
2017-02-06T09:54:59.926Z,3.58
2017-02-06T09:55:40.413Z,3.6
2017-02-06T09:56:20.908Z,3.57
2017-02-06T09:57:01.424Z,3.61
2017-02-06T09:57:41.950Z,3.68
2017-02-06T09:58:22.440Z,3.72
2017-02-06T09:59:02.963Z,3.68
2017-02-06T09:59:43.492Z,3.7
2017-02-06T10:00:23.985Z,3.72
2017-02-06T10:01:04.496Z,3.72
2017-02-06T10:01:45.000Z,3.7
2017-02-06T10:02:25.504Z,3.7
2017-02-06T10:03:06.021Z,3.7
2017-02-06T10:03:46.522Z,3.68
2017-02-06T10:04:27.024Z,3.7
2017-02-06T10:05:07.513Z,3.72
2017-02-06T10:05:48.057Z,3.72
2017-02-06T10:06:28.547Z,3.76
2017-02-06T10:07:09.063Z,3.69
2017-02-06T10:07:49.556Z,3.79
2017-02-06T10:08:30.074Z,3.76
2017-02-06T10:09:10.592Z,3.69
2017-02-06T10:09:51.110Z,3.66
2017-02-06T10:10:31.616Z,3.7
2017-02-06T10:11:12.096Z,3.78
2017-02-06T10:11:52.629Z,3.84
2017-02-06T10:12:33.147Z,3.87
2017-02-06T10:13:13.636Z,3.84
2017-02-06T10:13:54.146Z,3.69
2017-02-06T10:14:34.639Z,3.72
2017-02-06T10:15:15.156Z,3.72
2017-02-06T10:15:55.670Z,3.7
2017-02-06T10:16:36.215Z,3.66
2017-02-06T10:17:16.704Z,3.76
2017-02-06T10:17:57.226Z,3.68
2017-02-06T10:18:37.733Z,3.62
2017-02-06T10:19:18.243Z,3.54
2017-02-06T10:19:58.744Z,3.57
2017-02-06T10:20:39.238Z,3.54
2017-02-06T10:21:19.768Z,3.52
2017-02-06T10:22:00.266Z,3.52
2017-02-06T10:22:40.771Z,3.54
2017-02-06T10:23:21.289Z,3.55
2017-02-06T10:24:01.803Z,3.51
2017-02-06T10:24:42.327Z,3.52
2017-02-06T10:25:22.822Z,3.62
2017-02-06T10:26:03.347Z,3.62
2017-02-06T10:26:43.850Z,3.66
2017-02-06T10:27:24.363Z,3.61
2017-02-06T10:28:04.889Z,3.57
2017-02-06T10:28:45.366Z,3.66
2017-02-06T10:29:25.885Z,3.66
2017-02-06T10:30:06.375Z,3.68
2017-02-06T10:30:46.882Z,3.66
2017-02-06T10:31:27.406Z,3.72
2017-02-06T10:32:07.923Z,3.72
2017-02-06T10:32:48.407Z,3.69
2017-02-06T10:33:28.913Z,3.72
2017-02-06T10:34:09.408Z,3.7
2017-02-06T10:34:49.937Z,3.66
2017-02-06T10:35:30.436Z,3.76
2017-02-06T10:36:10.946Z,3.86
2017-02-06T10:36:51.435Z,3.79
2017-02-06T10:37:31.945Z,3.8
2017-02-06T10:38:12.458Z,3.8
2017-02-06T10:38:52.949Z,3.83
2017-02-06T10:39:33.457Z,3.94
2017-02-06T10:40:13.995Z,3.93
2017-02-06T10:40:54.481Z,3.94
2017-02-06T10:41:34.988Z,4.05
2017-02-06T10:42:15.500Z,4.05
2017-02-06T10:42:56.026Z,4.05
2017-02-06T10:43:36.539Z,4.06
2017-02-06T10:44:17.064Z,4.14
2017-02-06T10:44:57.582Z,4.24
2017-02-06T10:45:38.086Z,4.12
2017-02-06T10:46:18.587Z,4.2
2017-02-06T10:46:59.087Z,4.34
2017-02-06T10:47:39.583Z,4.23
2017-02-06T10:48:20.089Z,4.36
2017-02-06T10:49:00.591Z,4.33
2017-02-06T10:49:41.100Z,4.33
2017-02-06T10:50:21.642Z,4.32
2017-02-06T10:51:02.133Z,4.2
2017-02-06T10:51:42.657Z,4.24
2017-02-06T10:52:23.135Z,4.27
2017-02-06T10:53:03.652Z,4.18
2017-02-06T10:53:44.147Z,4.22
2017-02-06T10:54:24.661Z,4.22
2017-02-06T10:55:05.160Z,4.29
2017-02-06T10:55:45.663Z,4.27
2017-02-06T10:56:26.169Z,4.29
2017-02-06T10:57:06.666Z,4.22
2017-02-06T10:57:47.179Z,4.34
2017-02-06T10:58:27.656Z,4.36
2017-02-06T10:59:08.165Z,4.36
2017-02-06T10:59:48.688Z,4.44
2017-02-06T11:00:29.210Z,4.44
2017-02-06T11:01:09.715Z,4.33
2017-02-06T11:01:50.236Z,4.37
2017-02-06T11:02:30.731Z,4.33
2017-02-06T11:03:11.246Z,4.36
2017-02-06T11:03:51.780Z,4.37
2017-02-06T11:04:32.270Z,4.36
2017-02-06T11:05:12.804Z,4.34
2017-02-06T11:05:53.330Z,4.3
2017-02-06T11:06:33.834Z,4.27
2017-02-06T11:07:14.342Z,4.24
2017-02-06T11:07:54.864Z,4.36
2017-02-06T11:08:35.368Z,4.33
2017-02-06T11:09:15.863Z,4.36
2017-02-06T11:09:56.386Z,4.42
2017-02-06T11:10:36.893Z,4.42
2017-02-06T11:11:17.407Z,4.45
2017-02-06T11:11:57.908Z,4.42
2017-02-06T11:12:38.432Z,4.34
2017-02-06T11:13:18.939Z,4.34
2017-02-06T11:13:59.485Z,4.4
2017-02-06T11:14:39.961Z,4.4
2017-02-06T11:15:20.468Z,4.33
2017-02-06T11:16:00.976Z,4.33
2017-02-06T11:16:41.482Z,4.42
2017-02-06T11:17:21.989Z,4.33
2017-02-06T11:18:02.518Z,4.33
2017-02-06T11:18:43.044Z,4.3
2017-02-06T11:19:23.536Z,4.32
2017-02-06T11:20:04.103Z,4.23
2017-02-06T11:20:44.607Z,4.27
2017-02-06T11:21:25.112Z,4.24
2017-02-06T11:22:05.620Z,4.26
2017-02-06T11:22:46.147Z,4.27
2017-02-06T11:23:26.654Z,4.24
2017-02-06T11:24:07.176Z,4.12
2017-02-06T11:24:47.685Z,4.2
2017-02-06T11:25:28.196Z,4.15
2017-02-06T11:26:08.718Z,4.2
2017-02-06T11:26:49.256Z,4.4
2017-02-06T11:27:29.755Z,4.34
2017-02-06T11:28:10.273Z,4.34
2017-02-06T11:28:50.784Z,4.41
2017-02-06T11:29:31.306Z,4.44
2017-02-06T11:30:11.835Z,4.52
2017-02-06T11:30:52.335Z,4.47
2017-02-06T11:31:32.831Z,4.47
2017-02-06T11:32:13.347Z,4.59
2017-02-06T11:32:53.857Z,4.48
2017-02-06T11:33:34.379Z,4.34
2017-02-06T11:34:14.905Z,4.41
2017-02-06T11:34:55.388Z,4.42
2017-02-06T11:35:35.904Z,4.34
2017-02-06T11:36:16.426Z,4.5
2017-02-06T11:36:56.931Z,4.51
2017-02-06T11:37:37.442Z,4.52
2017-02-06T11:38:17.941Z,4.47
2017-02-06T11:38:58.455Z,4.47
2017-02-06T11:39:38.992Z,4.51
2017-02-06T11:40:19.478Z,4.55
2017-02-06T11:40:59.977Z,4.62
2017-02-06T11:41:40.451Z,4.75
2017-02-06T11:42:20.979Z,4.69
2017-02-06T11:43:01.472Z,4.72
2017-02-06T11:43:41.981Z,4.8
2017-02-06T11:44:22.488Z,4.75
2017-02-06T11:45:03.001Z,4.89
2017-02-06T11:45:43.494Z,4.84
2017-02-06T11:46:24.008Z,4.86
2017-02-06T11:47:04.524Z,4.82
2017-02-06T11:47:45.036Z,4.82
2017-02-06T11:48:25.545Z,4.75
2017-02-06T11:49:06.074Z,4.75
2017-02-06T11:49:46.578Z,4.82
2017-02-06T11:50:27.090Z,4.85
2017-02-06T11:51:07.588Z,4.96
2017-02-06T11:51:48.082Z,4.91
2017-02-06T11:52:28.601Z,4.96
2017-02-06T11:53:09.102Z,4.94
2017-02-06T11:53:49.615Z,4.97
2017-02-06T11:54:30.118Z,5.02
2017-02-06T11:55:10.627Z,4.94
2017-02-06T11:55:51.219Z,4.99
2017-02-06T11:56:31.714Z,5.06
2017-02-06T11:57:12.222Z,5.1
2017-02-06T11:57:52.739Z,5.07
2017-02-06T11:58:33.259Z,5.03
2017-02-06T11:59:13.779Z,5.17
2017-02-06T11:59:54.338Z,5.18
2017-02-06T12:00:34.847Z,5.1
2017-02-06T12:01:15.373Z,5.21
2017-02-06T12:01:55.878Z,5.1
2017-02-06T12:02:36.380Z,5.09
2017-02-06T12:03:16.903Z,5.12
2017-02-06T12:03:57.404Z,5.13
2017-02-06T12:04:37.915Z,5.2
2017-02-06T12:05:18.523Z,5.12
2017-02-06T12:05:59.089Z,5.15
2017-02-06T12:06:39.710Z,5.3
2017-02-06T12:07:20.211Z,5.22
2017-02-06T12:08:00.715Z,5.15
2017-02-06T12:08:41.229Z,5.13
2017-02-06T12:09:21.758Z,5.12
2017-02-06T12:10:02.303Z,5.1
2017-02-06T12:10:42.809Z,5.17
2017-02-06T12:11:23.324Z,5.1
2017-02-06T12:12:03.858Z,5.17
2017-02-06T12:12:44.386Z,5.24
2017-02-06T12:13:24.889Z,5.31
2017-02-06T12:14:05.391Z,5.33
2017-02-06T12:14:45.890Z,5.38
2017-02-06T12:15:26.408Z,5.35
2017-02-06T12:16:06.909Z,5.43
2017-02-06T12:16:47.438Z,5.54
2017-02-06T12:17:27.953Z,5.57
2017-02-06T12:18:08.457Z,5.54
2017-02-06T12:18:48.974Z,5.51
2017-02-06T12:19:29.489Z,5.61
2017-02-06T12:20:10.011Z,5.56
2017-02-06T12:20:50.511Z,5.58
2017-02-06T12:21:31.042Z,5.68
2017-02-06T12:22:11.498Z,5.71
2017-02-06T12:22:52.069Z,5.67
2017-02-06T12:23:32.693Z,5.63
2017-02-06T12:24:13.264Z,5.72
2017-02-06T12:24:53.766Z,5.75
2017-02-06T12:25:34.290Z,5.68
2017-02-06T12:26:14.799Z,5.61
2017-02-06T12:26:55.324Z,5.6
2017-02-06T12:27:35.859Z,5.51
2017-02-06T12:28:16.388Z,5.65
2017-02-06T12:28:56.919Z,5.61
2017-02-06T12:29:37.440Z,5.68
2017-02-06T12:30:17.973Z,5.68
2017-02-06T12:30:58.448Z,5.74
2017-02-06T12:31:38.958Z,5.58
2017-02-06T12:32:19.456Z,5.64
2017-02-06T12:32:59.979Z,5.65
2017-02-06T12:33:40.469Z,5.6
2017-02-06T12:34:20.975Z,5.63
2017-02-06T12:35:01.491Z,5.64
2017-02-06T12:35:41.997Z,5.64
2017-02-06T12:36:22.495Z,5.6
2017-02-06T12:37:03.022Z,5.6
2017-02-06T12:37:43.676Z,5.58
2017-02-06T12:38:24.213Z,5.63
2017-02-06T12:39:05.269Z,5.61
2017-02-06T12:39:45.783Z,5.64
2017-02-06T12:40:26.440Z,5.64
2017-02-06T12:41:06.935Z,5.61
2017-02-06T12:41:47.440Z,5.63
2017-02-06T12:42:27.959Z,5.61
2017-02-06T12:43:08.440Z,5.56
2017-02-06T12:43:48.986Z,5.49
2017-02-06T12:44:29.476Z,5.57
2017-02-06T12:45:10.010Z,5.45
2017-02-06T12:45:50.538Z,5.45
2017-02-06T12:46:30.989Z,5.38
2017-02-06T12:47:11.621Z,5.42
2017-02-06T12:47:52.115Z,5.45
2017-02-06T12:48:32.637Z,5.38
2017-02-06T12:49:13.118Z,5.43
2017-02-06T12:49:53.617Z,5.48
2017-02-06T12:50:34.135Z,5.43
2017-02-06T12:51:14.646Z,5.53
2017-02-06T12:51:55.976Z,5.51
2017-02-06T12:52:36.971Z,5.53
2017-02-06T12:53:18.151Z,5.53
2017-02-06T12:53:58.655Z,5.53
2017-02-06T12:54:39.164Z,5.43
2017-02-06T12:55:19.725Z,5.56
2017-02-06T12:56:00.233Z,5.58
2017-02-06T12:56:40.731Z,5.58
2017-02-06T12:57:21.243Z,5.76
2017-02-06T12:58:01.755Z,5.61
2017-02-06T12:58:42.280Z,5.71
2017-02-06T12:59:22.803Z,5.74
2017-02-06T13:00:03.294Z,5.85
2017-02-06T13:00:43.799Z,5.85
2017-02-06T13:01:24.305Z,5.96
2017-02-06T13:02:04.833Z,6
2017-02-06T13:02:45.333Z,5.91
2017-02-06T13:03:25.876Z,5.93
2017-02-06T13:04:06.371Z,5.89
2017-02-06T13:04:46.891Z,5.94
2017-02-06T13:05:27.380Z,5.89
2017-02-06T13:06:07.891Z,5.93
2017-02-06T13:06:48.414Z,5.86
2017-02-06T13:07:28.936Z,5.96
2017-02-06T13:08:09.426Z,5.97
2017-02-06T13:08:49.934Z,6
2017-02-06T13:09:30.450Z,6
2017-02-06T13:10:10.975Z,5.97
2017-02-06T13:10:51.466Z,6
2017-02-06T13:11:31.971Z,6.14
2017-02-06T13:12:12.473Z,6.12
2017-02-06T13:12:53.122Z,6.21
2017-02-06T13:13:33.629Z,6.21
2017-02-06T13:14:14.158Z,6.25
2017-02-06T13:14:54.668Z,6.25
2017-02-06T13:15:35.166Z,6.38
2017-02-06T13:16:15.683Z,6.4
2017-02-06T13:16:56.221Z,6.41
2017-02-06T13:17:38.497Z,6.52
2017-02-06T13:18:18.950Z,6.56
2017-02-06T13:18:59.477Z,6.58
2017-02-06T13:19:39.982Z,6.56
2017-02-06T13:20:20.474Z,6.51
2017-02-06T13:21:00.970Z,6.58
2017-02-06T13:21:41.457Z,6.58
2017-02-06T13:22:21.976Z,6.66
2017-02-06T13:23:02.486Z,6.52
2017-02-06T13:23:43.056Z,6.54
2017-02-06T13:24:24.316Z,6.55
2017-02-06T13:25:04.813Z,6.55
2017-02-06T13:25:45.324Z,6.56
2017-02-06T13:26:25.824Z,6.51
2017-02-06T13:27:06.352Z,6.44
2017-02-06T13:27:46.855Z,6.43
2017-02-06T13:28:27.382Z,6.52
2017-02-06T13:29:07.936Z,6.48
2017-02-06T13:29:48.485Z,6.54
2017-02-06T13:30:29.000Z,6.58
2017-02-06T13:31:09.498Z,6.56
2017-02-06T13:31:50.017Z,6.56
2017-02-06T13:32:30.583Z,6.59
2017-02-06T13:33:11.058Z,6.76
2017-02-06T13:33:51.587Z,6.7
2017-02-06T13:34:32.233Z,6.87
2017-02-06T13:35:12.746Z,6.8
2017-02-06T13:35:53.262Z,6.79
2017-02-06T13:36:33.842Z,6.8
2017-02-06T13:37:14.367Z,6.8
2017-02-06T13:37:54.870Z,6.76
2017-02-06T13:38:35.399Z,6.76
2017-02-06T13:39:15.894Z,6.77
2017-02-06T13:39:56.338Z,6.71
2017-02-06T13:40:36.849Z,6.69
2017-02-06T13:41:17.344Z,6.62
2017-02-06T13:41:57.849Z,6.77
2017-02-06T13:42:38.350Z,6.8
2017-02-06T13:43:18.849Z,6.79
2017-02-06T13:43:59.352Z,6.77
2017-02-06T13:44:39.865Z,6.89
2017-02-06T13:45:20.383Z,6.81
2017-02-06T13:46:00.900Z,6.88
2017-02-06T13:46:41.414Z,6.85
2017-02-06T13:47:21.910Z,6.84
2017-02-06T13:48:02.437Z,6.84
2017-02-06T13:48:42.937Z,6.74
2017-02-06T13:49:23.462Z,6.74
2017-02-06T13:50:03.965Z,6.73
2017-02-06T13:50:44.496Z,6.66
2017-02-06T13:51:24.956Z,6.61
2017-02-06T13:52:05.472Z,6.66
2017-02-06T13:52:45.978Z,6.64
2017-02-06T13:53:26.501Z,6.64
2017-02-06T13:54:09.739Z,6.66
2017-02-06T13:54:53.578Z,6.66
2017-02-06T13:55:34.165Z,6.71
2017-02-06T13:56:14.619Z,6.74
2017-02-06T13:56:55.132Z,6.76
2017-02-06T13:57:35.641Z,6.77
2017-02-06T13:58:16.125Z,6.74
2017-02-06T13:58:57.496Z,6.76
2017-02-06T13:59:38.003Z,6.81
2017-02-06T14:00:18.530Z,6.92
2017-02-06T14:00:59.041Z,6.76
2017-02-06T14:01:39.530Z,6.87
2017-02-06T14:02:21.143Z,6.84
2017-02-06T14:04:11.623Z,6.97
2017-02-06T14:04:52.061Z,6.92
2017-02-06T14:05:32.595Z,6.98
2017-02-06T14:06:14.917Z,7.02
2017-02-06T14:06:55.406Z,6.97
2017-02-06T14:07:35.933Z,7.07
2017-02-06T14:08:16.506Z,7.1
2017-02-06T14:08:57.014Z,7.12
2017-02-06T14:09:37.547Z,7.06
2017-02-06T14:10:18.093Z,7.03
2017-02-06T14:10:58.599Z,7.13
2017-02-06T14:11:39.157Z,7.09
2017-02-06T14:12:19.715Z,7.15
2017-02-06T14:13:00.189Z,7.15
2017-02-06T14:13:40.739Z,7.15
2017-02-06T14:14:21.244Z,7.23
2017-02-06T14:15:01.805Z,7.12
2017-02-06T14:15:42.409Z,7.24
2017-02-06T14:54:20.181Z,8.11
2017-02-06T14:55:00.088Z,8.16
2017-02-06T14:55:40.732Z,8.01
2017-02-06T14:56:21.309Z,8.11
2017-02-06T14:57:01.917Z,8.08
2017-02-06T14:57:42.507Z,8.01
2017-02-06T14:58:23.125Z,8.04
2017-02-06T15:00:23.246Z,8.11
2017-02-06T15:01:05.325Z,8.11
2017-02-06T15:01:46.232Z,8.02
2017-02-06T15:03:35.785Z,8.11
2017-02-06T15:04:19.065Z,8.08
2017-02-06T15:05:00.058Z,8.12
2017-02-06T15:05:42.902Z,8.05
2017-02-06T15:06:23.521Z,8.05
2017-02-06T15:07:05.103Z,7.97
2017-02-06T15:07:47.853Z,7.98
2017-02-06T15:08:28.590Z,8.07
2017-02-06T15:09:09.005Z,8.1
2017-02-06T15:09:52.317Z,8.07
2017-02-06T15:10:33.388Z,8.1
2017-02-06T15:11:13.897Z,8.2
2017-02-06T15:11:54.878Z,8.25
2017-02-06T15:12:36.206Z,8.28
2017-02-06T15:13:17.987Z,8.25
2017-02-06T15:14:01.552Z,8.26
2017-02-06T15:14:43.719Z,8.33
2017-02-06T15:15:24.402Z,8.45